Time;durP1;ratioP1;P1;durP2;ratioP2;P2;SDS_P1;SDS_P2;PMS_P1;PMS_P2;Temp;Humidity;BMP_temperature;BMP_pressure;BME280_temperature;BME280_humidity;BME280_pressure;Samples;Min_cycle;Max_cycle;Signal;HPM_P1;HPM_P2
2021/10/09 00:00:04;;;;;;;12.9;7.6;;;;;;;;;;;;;
2021/10/09 00:02:30;;;;;;;13.4;8.3;;;;;;;;;;;;;
2021/10/09 00:04:55;;;;;;;10.9;7.8;;;;;;;;;;;;;
2021/10/09 00:07:20;;;;;;;11.1;8.1;;;;;;;;;;;;;
2021/10/09 00:09:47;;;;;;;12.2;7.8;;;;;;;;;;;;;
2021/10/09 00:12:11;;;;;;;10.9;8;;;;;;;;;;;;;
2021/10/09 00:14:37;;;;;;;11.7;7.9;;;;;;;;;;;;;
2021/10/09 00:17:03;;;;;;;11.1;7.9;;;;;;;;;;;;;
2021/10/09 00:19:28;;;;;;;10.2;7.2;;;;;;;;;;;;;
2021/10/09 00:21:53;;;;;;;11;7.5;;;;;;;;;;;;;
2021/10/09 00:24:18;;;;;;;12.3;8.5;;;;;;;;;;;;;
2021/10/09 00:26:43;;;;;;;12;8.2;;;;;;;;;;;;;
2021/10/09 00:29:08;;;;;;;11.3;7.8;;;;;;;;;;;;;
2021/10/09 00:31:33;;;;;;;11.5;8.1;;;;;;;;;;;;;
2021/10/09 00:33:58;;;;;;;11.8;8.2;;;;;;;;;;;;;
2021/10/09 00:36:24;;;;;;;12.6;8.9;;;;;;;;;;;;;
2021/10/09 00:38:49;;;;;;;11.4;8.1;;;;;;;;;;;;;
2021/10/09 00:41:14;;;;;;;11.2;7.9;;;;;;;;;;;;;
2021/10/09 00:43:39;;;;;;;11.5;7.9;;;;;;;;;;;;;
2021/10/09 00:46:04;;;;;;;12;8.1;;;;;;;;;;;;;
2021/10/09 00:48:29;;;;;;;10.6;7.5;;;;;;;;;;;;;
2021/10/09 00:50:54;;;;;;;13.9;8.2;;;;;;;;;;;;;
2021/10/09 00:53:19;;;;;;;11.7;7.9;;;;;;;;;;;;;
2021/10/09 00:55:44;;;;;;;11.3;8;;;;;;;;;;;;;
2021/10/09 00:58:09;;;;;;;13.3;8.2;;;;;;;;;;;;;
2021/10/09 01:00:35;;;;;;;12.7;8.5;;;;;;;;;;;;;
2021/10/09 01:03:02;;;;;;;11.3;8;;;;;;;;;;;;;
2021/10/09 01:05:26;;;;;;;10.8;7.5;;;;;;;;;;;;;
2021/10/09 01:07:51;;;;;;;11.6;8;;;;;;;;;;;;;
2021/10/09 01:10:19;;;;;;;13.4;8.4;;;;;;;;;;;;;
2021/10/09 01:12:44;;;;;;;12;8;;;;;;;;;;;;;
2021/10/09 01:15:09;;;;;;;10.8;7.7;;;;;;;;;;;;;
2021/10/09 01:17:35;;;;;;;11.2;7.9;;;;;;;;;;;;;
2021/10/09 01:20:00;;;;;;;11.2;7.7;;;;;;;;;;;;;
2021/10/09 01:22:25;;;;;;;13;8.4;;;;;;;;;;;;;
2021/10/09 01:24:50;;;;;;;14.3;8.2;;;;;;;;;;;;;
2021/10/09 01:27:15;;;;;;;12.1;8.3;;;;;;;;;;;;;
2021/10/09 01:29:51;;;;;;;11.3;7.5;;;;;;;;;;;;;
2021/10/09 01:32:17;;;;;;;9.9;7;;;;;;;;;;;;;
2021/10/09 01:34:42;;;;;;;9.6;6.3;;;;;;;;;;;;;
2021/10/09 01:37:07;;;;;;;9.5;5.9;;;;;;;;;;;;;
2021/10/09 01:39:32;;;;;;;9.5;6.3;;;;;;;;;;;;;
2021/10/09 01:41:57;;;;;;;9.3;6.3;;;;;;;;;;;;;
2021/10/09 01:44:22;;;;;;;9.6;6.6;;;;;;;;;;;;;
2021/10/09 01:46:47;;;;;;;12.1;7.5;;;;;;;;;;;;;
2021/10/09 01:49:13;;;;;;;10.5;6.3;;;;;;;;;;;;;
2021/10/09 01:51:38;;;;;;;9;6.3;;;;;;;;;;;;;
2021/10/09 01:54:03;;;;;;;9.9;6.9;;;;;;;;;;;;;
2021/10/09 01:56:28;;;;;;;12.5;7.8;;;;;;;;;;;;;
2021/10/09 01:58:53;;;;;;;10;6.9;;;;;;;;;;;;;
2021/10/09 02:01:18;;;;;;;13.1;7.7;;;;;;;;;;;;;
2021/10/09 02:03:43;;;;;;;11.6;7.8;;;;;;;;;;;;;
2021/10/09 02:06:15;;;;;;;10.5;7.3;;;;;;;;;;;;;
2021/10/09 02:08:33;;;;;;;9.8;7.2;;;;;;;;;;;;;
2021/10/09 02:11:01;;;;;;;10.6;7;;;;;;;;;;;;;
2021/10/09 02:13:28;;;;;;;11.2;7.4;;;;;;;;;;;;;
2021/10/09 02:15:52;;;;;;;10.8;7.3;;;;;;;;;;;;;
2021/10/09 02:18:33;;;;;;;10.5;7.3;;;;;;;;;;;;;
2021/10/09 02:25:44;;;;;;;11.1;7.3;;;;;;;;;;;;;
2021/10/09 02:27:55;;;;;;;11.2;7.6;;;;;;;;;;;;;
2021/10/09 02:30:20;;;;;;;10.1;7.4;;;;;;;;;;;;;
2021/10/09 02:32:45;;;;;;;9.7;6.6;;;;;;;;;;;;;
2021/10/09 02:38:01;;;;;;;10.1;7;;;;;;;;;;;;;
2021/10/09 02:40:26;;;;;;;10.3;6.9;;;;;;;;;;;;;
2021/10/09 02:42:51;;;;;;;10.7;7.3;;;;;;;;;;;;;
2021/10/09 02:45:17;;;;;;;9.9;6.7;;;;;;;;;;;;;
2021/10/09 02:47:42;;;;;;;9.1;6.9;;;;;;;;;;;;;
2021/10/09 02:50:10;;;;;;;9.9;6.9;;;;;;;;;;;;;
2021/10/09 02:52:34;;;;;;;10.3;7.2;;;;;;;;;;;;;
2021/10/09 02:54:57;;;;;;;9.8;7;;;;;;;;;;;;;
2021/10/09 02:57:23;;;;;;;10.4;7.2;;;;;;;;;;;;;
2021/10/09 02:59:48;;;;;;;11.4;7.1;;;;;;;;;;;;;
2021/10/09 03:02:13;;;;;;;11.1;7.4;;;;;;;;;;;;;
2021/10/09 03:04:38;;;;;;;9.6;7;;;;;;;;;;;;;
2021/10/09 03:07:03;;;;;;;9.3;6.5;;;;;;;;;;;;;
2021/10/09 03:09:28;;;;;;;9.7;6.6;;;;;;;;;;;;;
2021/10/09 03:11:53;;;;;;;10.1;6.7;;;;;;;;;;;;;
2021/10/09 03:14:18;;;;;;;9.9;6.6;;;;;;;;;;;;;
2021/10/09 03:16:45;;;;;;;10;6.8;;;;;;;;;;;;;
2021/10/09 03:19:09;;;;;;;8.6;7;;;;;;;;;;;;;
2021/10/09 03:21:34;;;;;;;7.8;5.8;;;;;;;;;;;;;
2021/10/09 03:23:59;;;;;;;10.3;6.6;;;;;;;;;;;;;
2021/10/09 03:26:24;;;;;;;8.6;6.9;;;;;;;;;;;;;
2021/10/09 03:28:49;;;;;;;10;6.9;;;;;;;;;;;;;
2021/10/09 03:31:14;;;;;;;9.8;6.6;;;;;;;;;;;;;
2021/10/09 03:33:39;;;;;;;8.3;6.3;;;;;;;;;;;;;
2021/10/09 03:36:04;;;;;;;8.7;6.2;;;;;;;;;;;;;
2021/10/09 03:38:30;;;;;;;9.3;6.3;;;;;;;;;;;;;
2021/10/09 03:40:59;;;;;;;8.7;6.3;;;;;;;;;;;;;
2021/10/09 03:43:22;;;;;;;8.5;5.5;;;;;;;;;;;;;
2021/10/09 03:45:52;;;;;;;7.5;5.8;;;;;;;;;;;;;
2021/10/09 03:48:20;;;;;;;8.9;6.2;;;;;;;;;;;;;
2021/10/09 03:53:01;;;;;;;7.2;5.5;;;;;;;;;;;;;
2021/10/09 03:55:26;;;;;;;8.6;5.5;;;;;;;;;;;;;
2021/10/09 03:57:52;;;;;;;7.4;5.6;;;;;;;;;;;;;
2021/10/09 04:02:33;;;;;;;7.1;5.4;;;;;;;7.83;86.12988;944.3092;;;;
2021/10/09 04:04:58;;;;;;;9.3;6.1;;;;;;;7.79;85.73633;944.2721;;;;
2021/10/09 04:07:25;;;;;;;8.3;5.8;;;;;;;7.83;85.80078;944.2877;;;;
2021/10/09 04:09:50;;;;;;;7.2;5.3;;;;;;;7.75;85.51172;944.2232;;;;
2021/10/09 04:12:18;;;;;;;8.5;6.1;;;;;;;7.71;85.93457;944.2988;;;;
2021/10/09 04:14:43;;;;;;;7.6;5.6;;;;;;;7.76;86.26074;944.2766;;;;
2021/10/09 04:17:08;;;;;;;8.9;6;;;;;;;7.76;86.23828;944.3424;;;;
2021/10/09 04:19:33;;;;;;;7.7;5.8;;;;;;;7.82;86.26172;944.3531;;;;
2021/10/09 04:21:58;;;;;;;7.7;5.3;;;;;;;7.8;86.04297;944.3364;;;;
2021/10/09 04:24:23;;;;;;;7.4;5.5;;;;;;;7.71;84.98145;944.2451;;;;
2021/10/09 04:26:49;;;;;;;7.4;5.8;;;;;;;7.65;85.10449;944.278;;;;
2021/10/09 04:29:14;;;;;;;6.9;5.2;;;;;;;7.56;85.42676;944.3201;;;;
2021/10/09 04:31:40;;;;;;;7.1;5.2;;;;;;;7.6;85.02832;944.3127;;;;
2021/10/09 04:34:05;;;;;;;6.6;5;;;;;;;7.69;85.06836;944.2595;;;;
2021/10/09 04:36:32;;;;;;;6.3;5.2;;;;;;;7.66;84.98145;944.3005;;;;
2021/10/09 04:38:57;;;;;;;7.3;5.3;;;;;;;7.71;84.52734;944.2972;;;;
2021/10/09 04:41:22;;;;;;;7.5;5.4;;;;;;;7.72;85.05078;944.2468;;;;
2021/10/09 04:43:48;;;;;;;7.7;5.4;;;;;;;7.69;85.55664;944.2159;;;;
2021/10/09 04:46:14;;;;;;;6.5;5.1;;;;;;;7.68;85.73633;944.2576;;;;
2021/10/09 04:48:39;;;;;;;7.9;5.4;;;;;;;7.76;85.5918;944.3075;;;;
2021/10/09 04:51:04;;;;;;;7.6;5.2;;;;;;;7.87;85.25195;944.3159;;;;
2021/10/09 04:53:31;;;;;;;8;5.4;;;;;;;7.88;85.07422;944.3479;;;;
2021/10/09 04:55:56;;;;;;;7.1;5.3;;;;;;;7.94;84.41504;944.3394;;;;
2021/10/09 05:01:48;;;;;;;7.1;5;;;;;;;7.68;83.45605;944.4353;;;;
2021/10/09 05:04:13;;;;;;;8;4.9;;;;;;;7.62;83.76172;944.4358;;;;
2021/10/09 05:06:38;;;;;;;6.5;5.1;;;;;;;7.4;84.24023;944.517;;;;
2021/10/09 05:09:03;;;;;;;8;5.3;;;;;;;7.42;85.3457;944.6299;;;;
2021/10/09 05:11:29;;;;;;;8.3;5.1;;;;;;;7.34;85.90723;944.6175;;;;
2021/10/09 05:13:54;;;;;;;8.8;6.1;;;;;;;7.17;86.41699;944.5516;;;;
2021/10/09 05:16:21;;;;;;;8.7;6;;;;;;;7.11;86.05469;944.6226;;;;
2021/10/09 05:18:48;;;;;;;8.8;5.9;;;;;;;6.88;87.05859;944.6066;;;;
2021/10/09 05:21:14;;;;;;;9.9;6.6;;;;;;;6.7;87.13477;944.586;;;;
2021/10/09 05:23:39;;;;;;;11.8;7.6;;;;;;;6.45;89.35645;944.5793;;;;
2021/10/09 05:26:05;;;;;;;13.5;8;;;;;;;6.4;90.56836;944.5909;;;;
2021/10/09 05:28:37;;;;;;;14.1;8.1;;;;;;;6.45;91.05566;944.6074;;;;
2021/10/09 05:30:57;;;;;;;11.5;7.7;;;;;;;6.49;90.83887;944.6278;;;;
2021/10/09 05:33:36;;;;;;;11.9;7.6;;;;;;;6.51;91.17969;944.6828;;;;
2021/10/09 05:35:47;;;;;;;12.2;7.8;;;;;;;6.62;90.92188;944.6381;;;;
2021/10/09 05:38:12;;;;;;;9.3;6.8;;;;;;;6.78;89.96973;944.7192;;;;
2021/10/09 05:40:37;;;;;;;10.7;6.5;;;;;;;6.84;89.99414;944.7145;;;;
2021/10/09 05:43:02;;;;;;;9.3;5.9;;;;;;;6.89;88.7041;944.728;;;;
2021/10/09 05:45:27;;;;;;;8.5;5.6;;;;;;;6.86;87.93945;944.717;;;;
2021/10/09 05:47:52;;;;;;;6.7;5;;;;;;;6.95;87.26563;944.7395;;;;
2021/10/09 05:50:23;;;;;;;7.7;5.3;;;;;;;7.04;87.19336;944.7024;;;;
2021/10/09 05:52:48;;;;;;;7.8;5.7;;;;;;;7.04;86.9668;944.712;;;;
2021/10/09 05:55:15;;;;;;;9;6;;;;;;;7;87.10547;944.7603;;;;
2021/10/09 05:57:38;;;;;;;8.8;7;;;;;;;6.93;87.43359;944.7676;;;;
2021/10/09 06:00:17;;;;;;;10.6;6.9;;;;;;;7.15;87.87207;944.8383;;;;
2021/10/09 06:25:16;;;;;;;10.1;6.3;;;;;;;7.37;87.59961;944.8948;;;;
2021/10/09 06:25:26;;;;;;;7.1;5.6;;;;;;;7.52;86.22656;944.9175;;;;
2021/10/09 06:31:56;;;;;;;7.2;5.8;;;;;;;8.21;82.94629;944.9996;;;;
2021/10/09 07:00:38;;;;;;;11;7.3;;;;;;;8.76;83.70996;945.1008;;;;
2021/10/09 07:03:05;;;;;;;10.7;6.8;;;;;;;9.03;83.66016;945.1545;;;;
2021/10/09 07:07:58;;;;;;;9.7;6.7;;;;;;;9.37;81.7666;945.1254;;;;
2021/10/09 07:10:20;;;;;;;10.3;6.4;;;;;;;9.49;82.18945;945.077;;;;
2021/10/09 07:12:45;;;;;;;9.5;6.5;;;;;;;9.8;80.45996;945.1397;;;;
2021/10/09 07:15:11;;;;;;;9.1;5.8;;;;;;;9.94;80.01953;944.9944;;;;
2021/10/09 07:17:36;;;;;;;8.4;6.1;;;;;;;9.47;80.0791;945.0598;;;;
2021/10/09 07:20:04;;;;;;;7.1;5.6;;;;;;;9.25;81.0293;944.9158;;;;
2021/10/09 07:22:27;;;;;;;7.3;5.5;;;;;;;8.97;81.30664;945.0178;;;;
2021/10/09 07:24:52;;;;;;;8.6;6;;;;;;;8.97;83.36719;945.0513;;;;
2021/10/09 07:27:17;;;;;;;10.4;6.2;;;;;;;8.25;84.83887;945.111;;;;
2021/10/09 07:29:45;;;;;;;9.2;6.2;;;;;;;8.12;86.09473;945.103;;;;
2021/10/09 07:32:10;;;;;;;8;5.7;;;;;;;8.31;86.00977;945.0302;;;;
2021/10/09 07:34:38;;;;;;;7.6;5.8;;;;;;;8.67;84.57031;945.05;;;;
2021/10/09 07:37:01;;;;;;;9;5.9;;;;;;;8.79;83.79492;945.0126;;;;
2021/10/09 07:39:27;;;;;;;6.9;5.1;;;;;;;9.1;82.25391;945.0818;;;;
2021/10/09 07:41:53;;;;;;;7.4;5;;;;;;;9.51;82.00098;945.0162;;;;
2021/10/09 07:44:19;;;;;;;6.9;5.2;;;;;;;9.54;80.62793;945.1213;;;;
2021/10/09 07:46:43;;;;;;;7;4.8;;;;;;;9.44;80.5752;945.0831;;;;
2021/10/09 07:49:08;;;;;;;7.9;5.1;;;;;;;9.01;82.37109;945.0938;;;;
2021/10/09 07:51:33;;;;;;;6.8;5;;;;;;;9.72;80.96973;945.1075;;;;
2021/10/09 07:54:03;;;;;;;6.5;4.8;;;;;;;10.28;78.34668;945.0559;;;;
2021/10/09 07:56:25;;;;;;;7;5.2;;;;;;;10.25;77.62305;945.0864;;;;
2021/10/09 07:58:51;;;;;;;7.2;4.8;;;;;;;10.55;75.7002;945.0427;;;;
2021/10/09 08:01:16;;;;;;;5.8;4.8;;;;;;;9.1;81.01367;944.9842;;;;
2021/10/09 08:03:44;;;;;;;6.1;4.6;;;;;;;10.36;79.51465;945.0776;;;;
2021/10/09 08:06:08;;;;;;;7.4;5.6;;;;;;;11.96;73.7373;944.931;;;;
2021/10/09 08:08:35;;;;;;;5.4;4.4;;;;;;;13.62;65.52051;944.9067;;;;
2021/10/09 08:11:00;;;;;;;6.2;4.4;;;;;;;15.13;61.31738;944.8733;;;;
2021/10/09 08:13:25;;;;;;;6.8;4.7;;;;;;;16.03;57.55957;944.818;;;;
2021/10/09 08:15:50;;;;;;;7;4.6;;;;;;;17.86;53.02832;944.8346;;;;
2021/10/09 08:18:17;;;;;;;7.4;4.4;;;;;;;17.96;52.57422;944.7676;;;;
2021/10/09 08:20:44;;;;;;;5.2;3.9;;;;;;;19.69;47.66211;944.7875;;;;
2021/10/09 08:23:11;;;;;;;5.3;3.8;;;;;;;20.36;44.0332;944.7758;;;;
2021/10/09 08:26:03;;;;;;;4.7;3.7;;;;;;;19.43;47.0293;944.7552;;;;
2021/10/09 08:28:17;;;;;;;4.4;3.5;;;;;;;20.05;45.73047;944.7759;;;;
2021/10/09 08:35:31;;;;;;;4.5;4.1;;;;;;;17.9;49.83789;944.8521;;;;
2021/10/09 08:40:07;;;;;;;6.5;4.7;;;;;;;17.23;52.46387;944.8538;;;;
2021/10/09 08:44:57;;;;;;;6.9;5;;;;;;;16.31;55.79004;944.944;;;;
2021/10/09 08:47:22;;;;;;;5.7;4.9;;;;;;;14.82;60.91602;945.0323;;;;
2021/10/09 08:49:49;;;;;;;18;5.5;;;;;;;13.63;62.61426;945.0461;;;;
2021/10/09 08:52:14;;;;;;;49.1;6.5;;;;;;;12.38;68.34961;944.9813;;;;
2021/10/09 08:54:43;;;;;;;6.7;5.8;;;;;;;12.75;67.96094;945.0034;;;;
2021/10/09 08:57:05;;;;;;;6.6;5;;;;;;;13.16;67.20996;945.0333;;;;
2021/10/09 08:59:31;;;;;;;9.6;5.9;;;;;;;12.7;69.8584;945.014;;;;
2021/10/09 09:02:09;;;;;;;7.1;5.5;;;;;;;13.53;66.16309;945.0505;;;;
2021/10/09 09:05:18;;;;;;;8.1;5.3;;;;;;;12.65;67.53223;944.9822;;;;
2021/10/09 09:08:01;;;;;;;7.3;5.2;;;;;;;12.76;66.96387;945.0226;;;;
2021/10/09 09:25:19;;;;;;;7.1;5.7;;;;;;;12.52;69.49707;944.9827;;;;
2021/10/09 09:26:32;;;;;;;7.2;5.6;;;;;;;13.28;67.26367;944.9367;;;;
2021/10/09 09:31:41;;;;;;;8.5;6.1;;;;;;;13.2;68.72168;944.9484;;;;
2021/10/09 09:33:54;;;;;;;7.6;5.7;;;;;;;12.91;70.05371;944.908;;;;
2021/10/09 09:36:11;;;;;;;9.2;6.3;;;;;;;12.65;71.28418;944.928;;;;
2021/10/09 09:38:56;;;;;;;9.3;6.8;;;;;;;12.53;71.41406;944.9453;;;;
2021/10/09 09:40:50;;;;;;;8.4;6.1;;;;;;;12.23;72.09863;944.9619;;;;
2021/10/09 09:43:24;;;;;;;9.7;6.8;;;;;;;12.26;72.11426;944.9622;;;;
2021/10/09 09:45:49;;;;;;;9.2;6.4;;;;;;;12.76;70.41797;944.8948;;;;
2021/10/09 09:48:14;;;;;;;9.4;6.7;;;;;;;12.54;71.80566;944.8503;;;;
2021/10/09 09:50:40;;;;;;;9.1;6.8;;;;;;;12.49;71.77441;944.8113;;;;
2021/10/09 09:53:05;;;;;;;13.2;6.4;;;;;;;12.26;72.67773;944.8864;;;;
2021/10/09 09:55:30;;;;;;;10.6;7;;;;;;;12.39;72.28613;944.8633;;;;
2021/10/09 09:57:55;;;;;;;10.3;6.6;;;;;;;12.37;70.42383;944.8694;;;;
2021/10/09 10:00:20;;;;;;;8.8;6.2;;;;;;;12.55;70.26953;944.8234;;;;
2021/10/09 10:02:45;;;;;;;9.2;6.3;;;;;;;12.82;68.99316;944.8206;;;;
2021/10/09 10:05:12;;;;;;;9.1;6.6;;;;;;;12.45;71.5498;944.7612;;;;
2021/10/09 10:07:37;;;;;;;7.8;6.2;;;;;;;12.44;73.24707;944.8028;;;;
2021/10/09 10:10:02;;;;;;;8.7;6.4;;;;;;;12.66;69.93164;944.8544;;;;
2021/10/09 10:12:29;;;;;;;7.5;5.9;;;;;;;12.91;69.07715;944.8769;;;;
2021/10/09 10:14:55;;;;;;;8.9;6.6;;;;;;;12.62;71.62402;944.759;;;;
2021/10/09 10:17:20;;;;;;;10.5;7.1;;;;;;;12.31;72.94922;944.8791;;;;
2021/10/09 10:22:01;;;;;;;9.6;6.8;;;;;;;12.68;70.35938;944.8292;;;;
2021/10/09 10:24:26;;;;;;;10.7;6.4;;;;;;;12.5;74.03613;944.8243;;;;
2021/10/09 10:26:51;;;;;;;11.6;6.3;;;;;;;12.74;70.32324;944.7996;;;;
2021/10/09 10:29:16;;;;;;;10.2;6.6;;;;;;;12.63;71.34961;944.7999;;;;
2021/10/09 10:31:41;;;;;;;7.7;6.3;;;;;;;12.49;71.14355;944.8042;;;;
2021/10/09 10:34:06;;;;;;;11.2;6.8;;;;;;;12.72;71.84766;944.856;;;;
2021/10/09 10:36:32;;;;;;;8.8;6.3;;;;;;;12.7;72.03906;944.8317;;;;
2021/10/09 10:38:57;;;;;;;9.5;6.7;;;;;;;12.5;72.39551;944.8738;;;;
2021/10/09 10:41:22;;;;;;;9.9;7.1;;;;;;;12.31;73.625;944.9302;;;;
2021/10/09 10:43:49;;;;;;;10.5;7.3;;;;;;;12.17;74.01367;944.8737;;;;
2021/10/09 10:46:12;;;;;;;9.4;7.4;;;;;;;12.49;72.1875;944.9328;;;;
2021/10/09 10:48:37;;;;;;;10.2;7;;;;;;;12.54;72.35547;944.8967;;;;
2021/10/09 10:51:17;;;;;;;9.4;6.8;;;;;;;12.78;72.56738;944.9406;;;;
2021/10/09 10:53:33;;;;;;;9;7;;;;;;;12.55;72.21973;944.8816;;;;
2021/10/09 10:56:08;;;;;;;11;7.7;;;;;;;13.02;69.57617;944.8839;;;;
2021/10/09 10:58:33;;;;;;;8.7;6.7;;;;;;;13;69.39063;944.8538;;;;
2021/10/09 11:00:58;;;;;;;9.2;6.8;;;;;;;13.25;69.98145;944.8574;;;;
2021/10/09 11:03:23;;;;;;;9.1;7.1;;;;;;;13.4;68.62695;944.877;;;;
2021/10/09 11:05:48;;;;;;;110.4;9;;;;;;;12.35;72.09473;944.8828;;;;
2021/10/09 11:08:15;;;;;;;9.2;6.7;;;;;;;12.72;71.70996;944.8128;;;;
2021/10/09 11:10:38;;;;;;;15.4;6.6;;;;;;;12.97;69.74121;944.7944;;;;
2021/10/09 11:13:23;;;;;;;10;7.2;;;;;;;13.16;68.69043;944.8525;;;;
2021/10/09 11:15:48;;;;;;;9.6;6.8;;;;;;;13.74;67.66699;944.8901;;;;
2021/10/09 11:18:13;;;;;;;10.1;6.9;;;;;;;13.97;67.53125;944.8161;;;;
2021/10/09 11:20:41;;;;;;;8.2;6.5;;;;;;;13.86;66.69727;944.8633;;;;
2021/10/09 11:23:03;;;;;;;182.2;10;;;;;;;13.36;67.52832;944.8351;;;;
2021/10/09 11:25:29;;;;;;;630.6;22.1;;;;;;;12.71;69.5957;944.788;;;;
2021/10/09 11:27:54;;;;;;;8;6.1;;;;;;;13.67;67.73633;944.9528;;;;
2021/10/09 11:30:20;;;;;;;8.2;5.9;;;;;;;14.27;64.17871;944.8642;;;;
2021/10/09 11:32:46;;;;;;;8.2;6;;;;;;;14.52;64.00977;944.8758;;;;
2021/10/09 11:35:13;;;;;;;9.3;6.4;;;;;;;15.48;60.63867;944.8833;;;;
2021/10/09 11:37:37;;;;;;;7.6;5.6;;;;;;;15.74;58.3418;944.8608;;;;
2021/10/09 11:40:03;;;;;;;9.1;6;;;;;;;15.76;59.08398;944.8239;;;;
2021/10/09 11:42:29;;;;;;;7.9;6.1;;;;;;;15.1;59.95117;944.8114;;;;
2021/10/09 11:44:53;;;;;;;7.8;5.8;;;;;;;15.88;57.74707;944.878;;;;
2021/10/09 11:53:28;;;;;;;19.4;7.2;;;;;;;14.98;61.07813;944.8589;;;;
2021/10/09 11:55:41;;;;;;;184.6;12;;;;;;;13.33;66.27148;944.9172;;;;
2021/10/09 11:58:05;;;;;;;8.6;6.7;;;;;;;13.86;65.61426;944.9562;;;;
2021/10/09 12:00:31;;;;;;;10.1;7.4;;;;;;;14.64;63.33398;944.9263;;;;
2021/10/09 12:02:56;;;;;;;74.5;8.6;;;;;;;14.9;62.32422;944.9252;;;;
2021/10/09 12:05:21;;;;;;;10.1;6.7;;;;;;;16.16;56.77734;944.8884;;;;
2021/10/09 12:07:46;;;;;;;10;7.2;;;;;;;16.15;56.44141;944.8949;;;;
2021/10/09 12:10:14;;;;;;;9.4;7.2;;;;;;;16.06;58.91602;944.9111;;;;
2021/10/09 12:12:37;;;;;;;38.2;7.3;;;;;;;16.63;54.53418;944.832;;;;
2021/10/09 12:15:02;;;;;;;9.7;6.9;;;;;;;17.91;51.79102;944.8301;;;;
2021/10/09 12:17:27;;;;;;;8.8;6.3;;;;;;;19.74;46.80469;944.815;;;;
2021/10/09 12:19:54;;;;;;;271;14.2;;;;;;;19.11;47.35742;944.75;;;;
2021/10/09 12:22:19;;;;;;;8.7;6.7;;;;;;;19.89;46.05273;944.8186;;;;
2021/10/09 12:24:44;;;;;;;9.1;6.4;;;;;;;19.76;46.1543;944.7654;;;;
2021/10/09 12:27:12;;;;;;;8.7;6.7;;;;;;;21.03;43.19922;944.6177;;;;
2021/10/09 12:29:37;;;;;;;10.2;6.8;;;;;;;21.11;42.82227;944.6864;;;;
2021/10/09 12:32:01;;;;;;;8.6;6.5;;;;;;;21.22;43.67578;944.6647;;;;
2021/10/09 12:34:26;;;;;;;10.4;6.9;;;;;;;23.1;39.16016;944.7385;;;;
2021/10/09 12:36:51;;;;;;;16.1;7.1;;;;;;;24.85;35.78711;944.6886;;;;
2021/10/09 12:39:16;;;;;;;8.9;6.5;;;;;;;25.82;33.72461;944.7112;;;;
2021/10/09 12:41:42;;;;;;;8;6.1;;;;;;;25.59;34.5;944.7267;;;;
2021/10/09 12:44:07;;;;;;;9.8;7;;;;;;;24.71;36.08398;944.7844;;;;
2021/10/09 12:46:32;;;;;;;8.2;6.5;;;;;;;24.32;35.72168;944.7386;;;;
2021/10/09 12:48:57;;;;;;;8.3;6.3;;;;;;;23.76;36.79492;944.7213;;;;
2021/10/09 12:51:24;;;;;;;8.4;6.7;;;;;;;22.31;39.39551;944.6967;;;;
2021/10/09 12:53:52;;;;;;;50;9;;;;;;;23.27;37.40039;944.6923;;;;
2021/10/09 12:56:14;;;;;;;8.5;6.6;;;;;;;22.95;38.70117;944.6799;;;;
2021/10/09 12:58:40;;;;;;;96.4;11.7;;;;;;;22.5;38.86133;944.7529;;;;
2021/10/09 13:01:09;;;;;;;8.5;6.9;;;;;;;23.38;36.94043;944.705;;;;
2021/10/09 13:03:49;;;;;;;10.3;6.9;;;;;;;23.91;35.9707;944.66;;;;
2021/10/09 13:06:17;;;;;;;8.1;6.6;;;;;;;24.95;34.59277;944.6379;;;;
2021/10/09 13:08:42;;;;;;;7.8;6.2;;;;;;;25.04;33.78418;944.6214;;;;
2021/10/09 13:11:10;;;;;;;49.8;8.7;;;;;;;23.62;36.43066;944.6791;;;;
2021/10/09 13:13:35;;;;;;;8.6;6.6;;;;;;;21.77;39.92188;944.72;;;;
2021/10/09 13:16:02;;;;;;;802.1;32.9;;;;;;;20.01;42.44629;944.6598;;;;
2021/10/09 13:18:27;;;;;;;8.6;7;;;;;;;20.73;41.95605;944.7534;;;;
2021/10/09 13:20:53;;;;;;;9.3;7;;;;;;;21.42;40.63867;944.7728;;;;
2021/10/09 13:23:19;;;;;;;8.7;6.9;;;;;;;21.37;40.95215;944.7511;;;;
2021/10/09 13:25:45;;;;;;;10.1;7.2;;;;;;;20.93;41.61133;944.7321;;;;
2021/10/09 13:28:32;;;;;;;9.2;7.5;;;;;;;21.29;40.75488;944.7539;;;;
2021/10/09 13:30:57;;;;;;;8.3;6.9;;;;;;;21.99;39.53125;944.7661;;;;
2021/10/09 13:33:22;;;;;;;8.6;7;;;;;;;22.41;39.97852;944.6958;;;;
2021/10/09 13:35:47;;;;;;;9;7.1;;;;;;;22.01;40.00195;944.7656;;;;
2021/10/09 13:38:14;;;;;;;8.6;6.9;;;;;;;22.04;39.8291;944.8125;;;;
2021/10/09 13:40:38;;;;;;;8.9;6.9;;;;;;;21.15;41.12988;944.7967;;;;
2021/10/09 13:43:06;;;;;;;84.1;9.9;;;;;;;18.69;46.5791;944.7813;;;;
2021/10/09 13:45:30;;;;;;;9.6;7.1;;;;;;;19.9;45.90137;944.8516;;;;
2021/10/09 13:47:55;;;;;;;10.4;7.4;;;;;;;18.66;46.19141;944.809;;;;
2021/10/09 13:50:21;;;;;;;9.9;7;;;;;;;20.58;42.57129;944.8322;;;;
2021/10/09 13:52:45;;;;;;;12;7.2;;;;;;;20.9;41.9248;944.8304;;;;
2021/10/09 13:55:11;;;;;;;8.9;6.9;;;;;;;20.53;42.82422;944.8873;;;;
2021/10/09 13:57:36;;;;;;;10.2;7.3;;;;;;;21.12;40.85742;944.9017;;;;
2021/10/09 14:00:01;;;;;;;10.3;7.3;;;;;;;21.37;41.09082;944.8978;;;;
2021/10/09 14:02:30;;;;;;;10.2;7.6;;;;;;;19.22;46.41309;944.824;;;;
2021/10/09 14:04:51;;;;;;;9.6;7.1;;;;;;;19.88;45.00098;944.8632;;;;
2021/10/09 14:07:16;;;;;;;9.7;7.4;;;;;;;19.89;43.88184;944.8356;;;;
2021/10/09 14:09:41;;;;;;;9;6.7;;;;;;;20.93;41.83496;944.804;;;;
2021/10/09 14:12:06;;;;;;;8.7;7.1;;;;;;;21.23;41.25391;944.7863;;;;
2021/10/09 14:14:32;;;;;;;50.2;8;;;;;;;19.64;43.4375;944.7536;;;;
2021/10/09 14:16:57;;;;;;;11.5;8;;;;;;;18.02;47.76172;944.8897;;;;
2021/10/09 14:19:23;;;;;;;12;8.1;;;;;;;17.23;50.46973;944.8297;;;;
2021/10/09 14:21:48;;;;;;;8.8;7.4;;;;;;;16.71;51.66113;944.8803;;;;
2021/10/09 14:24:15;;;;;;;9.4;7.1;;;;;;;17.75;49.32324;944.8964;;;;
2021/10/09 14:26:40;;;;;;;9.7;7.3;;;;;;;17.39;50.33691;944.9462;;;;
2021/10/09 14:29:07;;;;;;;10.6;7.8;;;;;;;16.65;51.14453;944.8617;;;;
2021/10/09 14:31:32;;;;;;;12.2;8.3;;;;;;;15.27;55.27832;944.942;;;;
2021/10/09 14:34:01;;;;;;;9.6;7.8;;;;;;;14.77;57.71582;944.9484;;;;
2021/10/09 14:36:26;;;;;;;12.2;8.8;;;;;;;14.6;58.7998;944.8986;;;;
2021/10/09 14:38:51;;;;;;;12.3;8.9;;;;;;;14.48;59.09473;945.0078;;;;
2021/10/09 14:41:17;;;;;;;12.3;8.6;;;;;;;13.97;60.09668;944.9282;;;;
2021/10/09 14:43:42;;;;;;;13.2;8.7;;;;;;;13.35;62.95313;944.9445;;;;
2021/10/09 14:46:26;;;;;;;13.2;9;;;;;;;12.87;64.69727;944.9403;;;;
2021/10/09 14:48:36;;;;;;;11.2;8.2;;;;;;;12.89;65.36719;944.9606;;;;
2021/10/09 14:51:08;;;;;;;11.7;8.5;;;;;;;12.97;65.80273;944.9727;;;;
2021/10/09 14:53:38;;;;;;;12.3;9.2;;;;;;;12.72;66.61426;944.995;;;;
2021/10/09 15:18:05;;;;;;;12.8;9.1;;;;;;;11.8;70.1709;945.1628;;;;
2021/10/09 15:20:11;;;;;;;12.7;9.1;;;;;;;11.77;70.0752;945.1756;;;;
2021/10/09 15:22:36;;;;;;;13.7;8.6;;;;;;;11.82;70.4375;945.1675;;;;
2021/10/09 15:25:03;;;;;;;13.8;9.4;;;;;;;11.86;70.07813;945.1627;;;;
2021/10/09 15:27:28;;;;;;;12.8;8.8;;;;;;;11.78;69.91602;945.0992;;;;
2021/10/09 15:29:53;;;;;;;14;8.8;;;;;;;11.82;69.74023;945.111;;;;
2021/10/09 15:32:18;;;;;;;10.9;8.1;;;;;;;11.87;69.47266;945.0973;;;;
2021/10/09 15:34:44;;;;;;;12.8;8.5;;;;;;;11.84;69.69727;945.0873;;;;
2021/10/09 15:37:09;;;;;;;11.8;8.3;;;;;;;11.79;69.64355;945.1156;;;;
2021/10/09 15:39:36;;;;;;;13.4;8.8;;;;;;;11.73;70.1377;945.1113;;;;
2021/10/09 15:42:01;;;;;;;13.6;9.1;;;;;;;11.76;69.79883;945.1661;;;;
2021/10/09 15:44:27;;;;;;;13.8;8.5;;;;;;;11.81;69.93262;945.1646;;;;
2021/10/09 15:46:52;;;;;;;12.6;8.9;;;;;;;11.67;70.75879;945.1031;;;;
2021/10/09 15:49:19;;;;;;;11.9;9;;;;;;;11.29;72.43457;945.1136;;;;
2021/10/09 15:51:44;;;;;;;12;8.4;;;;;;;11.37;71.98828;945.1381;;;;
2021/10/09 15:54:10;;;;;;;11.7;8.6;;;;;;;11.3;72.66406;945.1872;;;;
2021/10/09 15:56:35;;;;;;;13.3;9.2;;;;;;;11.25;72.34668;945.1432;;;;
2021/10/09 15:59:02;;;;;;;13.8;8.8;;;;;;;11.18;72.29004;945.1744;;;;
2021/10/09 16:01:28;;;;;;;12.7;8.7;;;;;;;11.22;72.0332;945.1404;;;;
2021/10/09 16:03:53;;;;;;;12;8.8;;;;;;;11.33;72.08594;945.1806;;;;
2021/10/09 16:06:18;;;;;;;11.5;8.4;;;;;;;11.35;72.25977;945.228;;;;
2021/10/09 16:08:44;;;;;;;14.9;9.4;;;;;;;11.4;71.62891;945.256;;;;
2021/10/09 16:11:09;;;;;;;17.5;10.9;;;;;;;11.33;72.39453;945.2372;;;;
2021/10/09 16:13:36;;;;;;;15.9;11.1;;;;;;;11.32;72.20996;945.2434;;;;
2021/10/09 16:16:00;;;;;;;13.6;9.7;;;;;;;11.37;72.02441;945.2626;;;;
2021/10/09 16:18:27;;;;;;;15.5;11;;;;;;;11.24;73.35156;945.2045;;;;
2021/10/09 16:20:53;;;;;;;16.3;12.2;;;;;;;11.16;73.70508;945.2299;;;;
2021/10/09 16:23:18;;;;;;;18.1;12.5;;;;;;;11.18;74.55273;945.2333;;;;
2021/10/09 16:25:43;;;;;;;22.1;16;;;;;;;11.16;74.6084;945.3527;;;;
2021/10/09 16:28:09;;;;;;;17.8;12.4;;;;;;;11.12;75.05762;945.3567;;;;
2021/10/09 16:30:34;;;;;;;13.2;9.8;;;;;;;11.07;74.78613;945.335;;;;
2021/10/09 16:33:01;;;;;;;12.4;8.9;;;;;;;10.96;75.06543;945.3987;;;;
2021/10/09 16:35:26;;;;;;;9.9;7.6;;;;;;;11;74.75195;945.3142;;;;
2021/10/09 16:37:52;;;;;;;8.8;7.1;;;;;;;10.93;74.81738;945.3488;;;;
2021/10/09 16:40:17;;;;;;;10.4;7.6;;;;;;;10.81;75.83887;945.3723;;;;
2021/10/09 16:42:43;;;;;;;11.3;7.3;;;;;;;10.84;76.33496;945.3311;;;;
2021/10/09 16:45:08;;;;;;;12.5;8.1;;;;;;;10.78;75.92383;945.308;;;;
2021/10/09 16:47:35;;;;;;;13.1;8;;;;;;;10.79;75.97266;945.3474;;;;
2021/10/09 16:50:00;;;;;;;9.4;7.8;;;;;;;10.77;76.72168;945.3558;;;;
2021/10/09 16:52:32;;;;;;;13.1;8.8;;;;;;;10.7;77.16797;945.4539;;;;
2021/10/09 16:54:57;;;;;;;12.4;7.9;;;;;;;10.67;77.30957;945.3592;;;;
2021/10/09 16:57:22;;;;;;;13.2;8.4;;;;;;;10.69;77.32422;945.4894;;;;
2021/10/09 16:59:48;;;;;;;11.1;8;;;;;;;10.55;77.54004;945.4512;;;;
2021/10/09 17:02:13;;;;;;;14.4;8.8;;;;;;;10.61;77.07031;945.4776;;;;
2021/10/09 17:04:39;;;;;;;12.3;8.7;;;;;;;10.57;76.83496;945.4669;;;;
2021/10/09 17:07:04;;;;;;;11.5;8.5;;;;;;;10.51;77.10938;945.538;;;;
2021/10/09 17:09:30;;;;;;;12;8.1;;;;;;;10.47;77.63965;945.5086;;;;
2021/10/09 17:11:55;;;;;;;11.4;8.1;;;;;;;10.56;77.50684;945.543;;;;
2021/10/09 17:14:20;;;;;;;11.4;8.2;;;;;;;10.48;77.86914;945.5845;;;;
2021/10/09 17:16:45;;;;;;;11.9;8.5;;;;;;;10.47;78.27832;945.5914;;;;
2021/10/09 17:19:10;;;;;;;14.4;10.6;;;;;;;10.36;78.58984;945.623;;;;
2021/10/09 17:21:37;;;;;;;13.5;9.5;;;;;;;10.19;79.51758;945.6735;;;;
2021/10/09 17:24:02;;;;;;;15.6;9.6;;;;;;;10.27;79.19141;945.6138;;;;
2021/10/09 17:26:48;;;;;;;11.7;9.5;;;;;;;10.12;79.68848;945.6791;;;;
2021/10/09 17:29:14;;;;;;;15.6;10.7;;;;;;;10.13;80.03027;945.7263;;;;